createdAt,value
2022-09-15T00:01:24.821Z,8.20
2022-09-15T00:03:52.103Z,6.73
2022-09-15T00:06:19.813Z,7.30
2022-09-15T00:08:47.020Z,5.87
2022-09-15T00:11:18.349Z,5.93
2022-09-15T00:13:45.758Z,6.93
2022-09-15T00:16:15.460Z,6.43
2022-09-15T00:18:43.952Z,9.50
2022-09-15T00:21:13.387Z,9.30
2022-09-15T00:23:40.571Z,8.40
2022-09-15T00:26:08.850Z,6.87
2022-09-15T00:28:37.801Z,11.17
2022-09-15T00:31:06.627Z,9.10
2022-09-15T00:33:34.048Z,10.90
2022-09-15T00:36:03.186Z,7.17
2022-09-15T00:38:30.514Z,4.90
2022-09-15T00:41:00.978Z,11.70
2022-09-15T00:43:46.783Z,6.57
2022-09-15T00:46:15.361Z,6.00
2022-09-15T00:48:46.787Z,5.10
2022-09-15T00:51:18.706Z,5.53
2022-09-15T00:53:47.391Z,9.93
2022-09-15T00:56:16.470Z,8.97
2022-09-15T00:58:48.061Z,9.73
2022-09-15T01:01:16.505Z,7.93
2022-09-15T01:03:44.075Z,5.47
2022-09-15T01:06:15.964Z,8.73
2022-09-15T01:08:47.123Z,8.50
2022-09-15T01:11:14.684Z,6.80
2022-09-15T01:13:41.611Z,11.60
2022-09-15T01:16:21.146Z,9.40
2022-09-15T01:18:56.653Z,8.40
2022-09-15T01:21:37.094Z,10.67
2022-09-15T01:24:37.697Z,9.63
2022-09-15T01:27:42.459Z,12.80
2022-09-15T01:30:13.438Z,11.17
2022-09-15T01:33:07.337Z,10.10
2022-09-15T01:35:51.564Z,6.60
2022-09-15T01:38:26.108Z,8.90
2022-09-15T01:41:00.038Z,7.67
2022-09-15T01:43:28.700Z,8.03
2022-09-15T01:45:58.463Z,12.67
2022-09-15T01:48:27.332Z,20.10
2022-09-15T01:50:57.770Z,7.80
2022-09-15T01:53:24.994Z,7.27
2022-09-15T01:55:55.889Z,11.47
2022-09-15T01:58:23.227Z,11.23
2022-09-15T02:00:55.395Z,11.80
2022-09-15T02:03:27.806Z,9.13
2022-09-15T02:05:59.438Z,8.13
2022-09-15T02:08:33.986Z,10.67
2022-09-15T02:11:11.283Z,11.37
2022-09-15T02:13:45.870Z,8.73
2022-09-15T02:16:17.931Z,8.23
2022-09-15T02:18:54.621Z,16.50
2022-09-15T02:21:26.810Z,8.93
2022-09-15T02:23:58.301Z,14.80
2022-09-15T02:26:27.728Z,10.83
2022-09-15T02:28:58.605Z,8.77
2022-09-15T02:31:27.301Z,8.80
2022-09-15T02:33:59.048Z,10.63
2022-09-15T02:36:27.897Z,9.87
2022-09-15T02:38:58.059Z,23.10
2022-09-15T02:41:25.062Z,12.10
2022-09-15T02:43:52.089Z,9.27
2022-09-15T02:46:21.870Z,11.07
2022-09-15T02:48:49.142Z,15.23
2022-09-15T02:51:18.717Z,7.43
2022-09-15T02:53:45.808Z,9.87
2022-09-15T02:56:13.079Z,23.53
2022-09-15T02:58:39.998Z,8.30
2022-09-15T03:01:08.721Z,7.87
2022-09-15T03:03:38.787Z,8.57
2022-09-15T03:06:08.486Z,15.77
2022-09-15T03:08:36.770Z,7.87
2022-09-15T03:11:03.566Z,10.77
2022-09-15T03:13:30.588Z,11.23
2022-09-15T03:15:57.495Z,15.20
2022-09-15T03:18:24.486Z,14.67
2022-09-15T03:20:56.437Z,15.67
2022-09-15T03:23:23.273Z,9.50
2022-09-15T03:25:51.865Z,12.37
2022-09-15T03:28:18.832Z,11.50
2022-09-15T03:30:45.883Z,7.87
2022-09-15T03:33:12.814Z,20.37
2022-09-15T03:35:39.694Z,9.10
2022-09-15T03:38:06.696Z,8.83
2022-09-15T03:40:33.647Z,12.40
2022-09-15T03:43:02.014Z,12.80
2022-09-15T03:45:28.983Z,12.07
2022-09-15T03:47:55.911Z,19.83
2022-09-15T03:50:22.722Z,9.77
2022-09-15T03:52:49.595Z,16.23
2022-09-15T03:55:16.722Z,17.37
2022-09-15T03:57:43.627Z,9.97
2022-09-15T04:00:13.554Z,11.00
2022-09-15T04:02:40.505Z,10.43
2022-09-15T04:05:08.394Z,9.67
2022-09-15T04:07:35.297Z,12.90
2022-09-15T04:10:02.165Z,10.67
2022-09-15T04:12:30.122Z,10.43
2022-09-15T04:14:56.959Z,9.40
2022-09-15T04:17:25.267Z,6.50
2022-09-15T04:19:52.103Z,10.73
2022-09-15T04:22:18.926Z,14.00
2022-09-15T04:24:46.123Z,18.00
2022-09-15T04:27:12.988Z,10.23
2022-09-15T04:29:39.875Z,11.50
2022-09-15T04:32:06.758Z,13.53
2022-09-15T04:34:40.606Z,11.53
2022-09-15T04:37:08.224Z,10.67
2022-09-15T04:39:35.128Z,12.43
2022-09-15T04:42:01.969Z,12.27
2022-09-15T04:44:28.752Z,9.10
2022-09-15T04:46:55.660Z,9.73
2022-09-15T04:49:22.587Z,13.37
2022-09-15T04:51:51.041Z,12.73
2022-09-15T04:54:17.862Z,16.90
2022-09-15T04:56:44.812Z,14.20
2022-09-15T04:59:14.522Z,10.87
2022-09-15T05:01:41.740Z,10.90
2022-09-15T05:04:08.842Z,10.27
2022-09-15T05:06:36.712Z,12.20
2022-09-15T05:09:10.234Z,10.63
2022-09-15T05:11:37.948Z,16.03
2022-09-15T05:14:04.997Z,11.17
2022-09-15T05:16:32.095Z,11.43
2022-09-15T05:19:01.291Z,12.47
2022-09-15T05:21:28.593Z,13.77
2022-09-15T05:23:55.552Z,10.33
2022-09-15T05:26:25.765Z,14.93
2022-09-15T05:28:52.977Z,13.07
2022-09-15T05:31:23.048Z,13.60
2022-09-15T05:33:50.806Z,11.37
2022-09-15T05:36:18.094Z,15.90
2022-09-15T05:38:45.001Z,14.50
2022-09-15T05:41:13.713Z,12.33
2022-09-15T05:43:42.001Z,15.40
2022-09-15T05:46:10.452Z,13.37
2022-09-15T05:48:37.491Z,15.47
2022-09-15T05:51:04.835Z,16.87
2022-09-15T05:53:33.192Z,12.90
2022-09-15T05:56:02.011Z,12.80
2022-09-15T05:58:29.771Z,14.27
2022-09-15T06:01:04.218Z,10.57
2022-09-15T06:03:31.305Z,9.60
2022-09-15T06:06:02.081Z,17.60
2022-09-15T06:08:33.323Z,11.23
2022-09-15T06:11:05.214Z,14.03
2022-09-15T06:13:32.444Z,19.47
2022-09-15T06:16:08.540Z,16.83
2022-09-15T06:18:36.758Z,16.93
2022-09-15T06:21:05.493Z,9.43
2022-09-15T06:23:32.234Z,16.60
2022-09-15T06:26:07.895Z,19.70
2022-09-15T06:28:34.843Z,16.00
2022-09-15T06:31:01.640Z,17.47
2022-09-15T06:33:30.028Z,18.40
2022-09-15T06:35:56.852Z,20.40
2022-09-15T06:38:23.647Z,17.57
2022-09-15T06:40:57.173Z,16.60
2022-09-15T06:43:24.395Z,28.43
2022-09-15T06:45:51.313Z,14.77
2022-09-15T06:48:24.747Z,17.33
2022-09-15T06:50:56.663Z,18.40
2022-09-15T06:53:23.527Z,19.73
2022-09-15T06:55:50.691Z,15.97
2022-09-15T06:58:17.483Z,15.87
2022-09-15T07:00:44.277Z,17.77
2022-09-15T07:03:11.138Z,17.23
2022-09-15T07:05:38.100Z,18.80
2022-09-15T07:08:06.490Z,20.83
2022-09-15T07:10:33.285Z,16.27
2022-09-15T07:13:00.009Z,17.83
2022-09-15T07:15:26.796Z,16.77
2022-09-15T07:17:53.754Z,14.37
2022-09-15T07:20:20.545Z,11.97
2022-09-15T07:22:47.294Z,14.87
2022-09-15T07:25:15.657Z,16.67
2022-09-15T07:27:42.571Z,18.93
2022-09-15T07:30:10.412Z,21.87
2022-09-15T07:32:37.412Z,15.17
2022-09-15T07:35:04.685Z,14.43
2022-09-15T07:37:31.731Z,16.20
2022-09-15T07:39:58.881Z,16.40
2022-09-15T07:42:27.109Z,16.73
2022-09-15T07:44:54.598Z,13.70
2022-09-15T07:47:21.456Z,16.73
2022-09-15T07:49:48.303Z,17.50
2022-09-15T07:52:15.118Z,17.10
2022-09-15T07:54:41.839Z,16.10
2022-09-15T07:57:08.723Z,19.53
2022-09-15T07:59:41.033Z,17.20
2022-09-15T08:02:15.734Z,17.40
2022-09-15T08:04:42.599Z,19.17
2022-09-15T08:07:09.475Z,12.90
2022-09-15T08:09:36.902Z,14.43
2022-09-15T08:12:04.320Z,13.60
2022-09-15T08:14:31.198Z,19.30
2022-09-15T08:16:59.998Z,15.37
2022-09-15T08:19:26.966Z,14.40
2022-09-15T08:21:53.743Z,12.57
2022-09-15T08:24:20.577Z,15.20
2022-09-15T08:26:47.345Z,12.93
2022-09-15T08:29:14.326Z,12.07
2022-09-15T08:31:41.255Z,8.73
2022-09-15T08:34:11.948Z,10.50
2022-09-15T08:36:39.114Z,11.50
2022-09-15T08:39:06.787Z,11.10
2022-09-15T08:41:36.324Z,9.93
2022-09-15T08:44:13.960Z,13.33
2022-09-15T08:46:46.932Z,9.00
2022-09-15T08:49:40.820Z,7.47
2022-09-15T08:52:18.367Z,9.00
2022-09-15T08:54:45.321Z,9.13
2022-09-15T08:57:17.056Z,6.80
2022-09-15T08:59:43.894Z,7.50
2022-09-15T09:02:45.720Z,11.53
2022-09-15T09:05:37.393Z,5.53
2022-09-15T09:08:23.845Z,6.93
2022-09-15T09:10:54.447Z,10.87
2022-09-15T09:13:34.674Z,6.70
2022-09-15T09:16:28.466Z,4.70
2022-09-15T09:19:17.473Z,5.33
2022-09-15T09:21:49.810Z,4.53
2022-09-15T09:24:18.596Z,6.73
2022-09-15T09:26:49.961Z,3.67
2022-09-15T09:29:19.263Z,5.30
2022-09-15T09:31:48.784Z,4.27
2022-09-15T09:34:22.636Z,4.10
2022-09-15T09:36:57.279Z,3.90
2022-09-15T09:39:24.430Z,5.13
2022-09-15T09:41:51.384Z,6.43
2022-09-15T09:44:18.583Z,4.17
2022-09-15T09:46:45.894Z,4.97
2022-09-15T09:49:17.524Z,5.47
2022-09-15T09:51:50.018Z,6.20
2022-09-15T09:54:19.011Z,5.83
2022-09-15T09:56:46.235Z,7.50
2022-09-15T09:59:38.740Z,7.90
2022-09-15T10:02:17.288Z,5.23
2022-09-15T10:04:45.339Z,6.13
2022-09-15T10:07:14.021Z,6.23
2022-09-15T10:09:49.096Z,9.87
2022-09-15T10:12:20.970Z,3.70
2022-09-15T10:14:53.766Z,6.27
2022-09-15T10:17:23.097Z,6.50
2022-09-15T10:19:51.880Z,8.23
2022-09-15T10:22:31.654Z,7.03
2022-09-15T10:25:00.982Z,5.13
2022-09-15T10:27:30.677Z,9.50
2022-09-15T10:30:12.334Z,8.57
2022-09-15T10:32:40.080Z,5.30
2022-09-15T10:35:11.943Z,5.50
2022-09-15T10:37:58.842Z,5.90
2022-09-15T10:40:33.320Z,10.30
2022-09-15T10:43:10.578Z,7.23
2022-09-15T10:45:39.724Z,7.07
2022-09-15T10:48:28.199Z,3.97
2022-09-15T10:50:59.069Z,3.00
2022-09-15T10:53:41.902Z,4.10
2022-09-15T10:56:20.224Z,5.10
2022-09-15T10:58:56.957Z,5.50
2022-09-15T11:01:36.304Z,2.70
2022-09-15T11:04:17.462Z,5.30
2022-09-15T11:06:50.734Z,7.73
2022-09-15T11:09:22.579Z,3.30
2022-09-15T11:12:03.746Z,7.57
2022-09-15T11:14:46.013Z,4.30
2022-09-15T11:17:27.287Z,3.57
2022-09-15T11:20:28.620Z,2.67
2022-09-15T11:23:01.844Z,3.33
2022-09-15T11:25:32.116Z,4.27
2022-09-15T11:28:04.687Z,2.73
2022-09-15T11:30:35.714Z,1.63
2022-09-15T11:33:05.021Z,4.27
2022-09-15T11:35:44.766Z,6.90
2022-09-15T11:38:22.992Z,3.87
2022-09-15T11:40:56.322Z,2.47
2022-09-15T11:43:32.639Z,3.03
2022-09-15T11:46:01.637Z,3.80
2022-09-15T11:48:33.391Z,3.00
2022-09-15T11:51:03.004Z,2.27
2022-09-15T11:53:35.424Z,2.93
2022-09-15T11:56:09.451Z,6.83
2022-09-15T11:58:52.592Z,6.60
2022-09-15T12:01:21.226Z,3.70
2022-09-15T12:03:54.014Z,2.80
2022-09-15T12:06:24.731Z,3.03
2022-09-15T12:08:55.518Z,4.63
2022-09-15T12:11:26.264Z,3.83
2022-09-15T12:13:55.114Z,5.63
2022-09-15T12:16:22.945Z,2.00
2022-09-15T12:18:53.561Z,5.40
2022-09-15T12:21:27.667Z,4.60
2022-09-15T12:23:58.388Z,6.83
2022-09-15T12:26:26.729Z,6.23
2022-09-15T12:28:59.781Z,4.53
2022-09-15T12:31:35.295Z,4.53
2022-09-15T12:34:04.269Z,2.60
2022-09-15T12:36:34.691Z,6.10
2022-09-15T12:39:03.752Z,3.23
2022-09-15T12:41:31.336Z,2.87
2022-09-15T12:44:14.667Z,4.00
2022-09-15T12:46:49.678Z,5.50
2022-09-15T12:49:19.178Z,2.63
2022-09-15T12:51:48.778Z,5.60
2022-09-15T12:54:22.941Z,4.83
2022-09-15T12:56:53.111Z,6.00
2022-09-15T12:59:24.098Z,5.03
2022-09-15T13:01:51.915Z,2.40
2022-09-15T13:04:50.458Z,1.27
2022-09-15T13:07:54.449Z,8.10
2022-09-15T13:10:36.493Z,4.10
2022-09-15T13:13:15.023Z,5.43
2022-09-15T13:15:47.960Z,4.77
2022-09-15T13:18:16.907Z,8.33
2022-09-15T13:20:51.888Z,3.60
2022-09-15T13:23:21.537Z,2.90
2022-09-15T13:25:50.135Z,5.37
2022-09-15T13:28:17.986Z,5.70
2022-09-15T13:30:59.630Z,5.40
2022-09-15T13:39:45.943Z,9.63
2022-09-15T13:42:29.968Z,3.60
2022-09-15T13:45:25.346Z,4.00
2022-09-15T13:48:12.965Z,3.70
2022-09-15T13:50:42.212Z,7.33
2022-09-15T13:53:38.878Z,4.77
2022-09-15T13:56:08.719Z,3.00
2022-09-15T14:01:23.847Z,5.17
2022-09-15T14:03:54.964Z,7.87
2022-09-15T14:06:25.260Z,1.77
2022-09-15T14:08:56.068Z,8.10
2022-09-15T14:11:27.647Z,6.20
2022-09-15T14:13:56.688Z,4.20
2022-09-15T14:16:30.065Z,7.93
2022-09-15T14:18:58.835Z,9.10
2022-09-15T14:21:27.841Z,3.20
2022-09-15T14:23:57.131Z,4.43
2022-09-15T14:26:26.380Z,2.67
2022-09-15T14:28:56.985Z,6.83
2022-09-15T14:31:28.795Z,4.10
2022-09-15T14:33:56.381Z,1.90
2022-09-15T14:36:27.434Z,5.03
2022-09-15T14:39:05.495Z,3.00
2022-09-15T14:41:32.390Z,3.40
2022-09-15T14:43:59.218Z,4.90
2022-09-15T14:46:36.361Z,3.07
2022-09-15T14:49:09.692Z,4.40
2022-09-15T14:51:38.683Z,4.80
2022-09-15T14:54:07.412Z,3.70
2022-09-15T14:56:36.477Z,3.17
2022-09-15T14:59:06.810Z,4.37
2022-09-15T15:01:37.369Z,4.83
2022-09-15T15:04:08.914Z,4.37
2022-09-15T15:06:41.155Z,2.90
2022-09-15T15:09:16.508Z,4.80
2022-09-15T15:11:43.574Z,3.80
2022-09-15T15:14:13.254Z,4.13
2022-09-15T15:16:50.477Z,5.07
2022-09-15T15:19:31.406Z,3.70
2022-09-15T15:22:20.101Z,6.53
2022-09-15T15:24:49.392Z,6.33
2022-09-15T15:27:41.875Z,5.13
2022-09-15T15:30:52.329Z,6.90
2022-09-15T15:33:23.915Z,6.97
2022-09-15T15:36:05.964Z,4.83
2022-09-15T15:38:44.911Z,4.77
2022-09-15T15:41:20.417Z,2.00
2022-09-15T15:43:58.445Z,4.60
2022-09-15T15:46:45.280Z,1.30
2022-09-15T15:49:12.436Z,2.93
2022-09-15T15:51:39.466Z,3.47
2022-09-15T15:54:07.680Z,1.40
2022-09-15T15:56:37.912Z,4.07
2022-09-15T15:59:05.460Z,3.80
2022-09-15T16:01:32.614Z,9.90
2022-09-15T16:03:59.374Z,2.23
2022-09-15T16:06:26.237Z,5.20
2022-09-15T16:08:53.592Z,1.37
2022-09-15T16:11:21.778Z,1.87
2022-09-15T16:13:48.609Z,1.37
2022-09-15T16:16:17.964Z,1.10
2022-09-15T16:18:45.126Z,2.10
2022-09-15T16:21:17.175Z,1.70
2022-09-15T16:23:44.584Z,2.30
2022-09-15T16:26:14.310Z,5.33
2022-09-15T16:28:42.770Z,1.87
2022-09-15T16:31:12.270Z,2.80
2022-09-15T16:33:39.362Z,1.73
2022-09-15T16:36:06.593Z,5.17
2022-09-15T16:38:34.349Z,4.03
2022-09-15T16:41:01.685Z,3.00
2022-09-15T16:43:28.498Z,2.40
2022-09-15T16:45:56.788Z,2.20
2022-09-15T16:48:23.665Z,6.53
2022-09-15T16:51:02.404Z,2.27
2022-09-15T16:53:38.061Z,2.03
2022-09-15T16:56:06.751Z,3.70
2022-09-15T16:58:33.606Z,1.97
2022-09-15T17:01:01.878Z,3.57
2022-09-15T17:03:28.953Z,8.00
2022-09-15T17:05:57.100Z,1.70
2022-09-15T17:08:25.320Z,2.63
2022-09-15T17:10:52.273Z,3.70
2022-09-15T17:13:23.938Z,3.20
2022-09-15T17:15:53.502Z,1.83
2022-09-15T17:18:22.461Z,4.33
2022-09-15T17:20:50.562Z,1.50
2022-09-15T17:23:20.051Z,0.80
2022-09-15T17:25:47.674Z,3.20
2022-09-15T17:28:14.731Z,19.83
2022-09-15T17:30:41.840Z,3.53
2022-09-15T17:33:12.647Z,1.53
2022-09-15T17:35:41.522Z,1.90
2022-09-15T17:38:08.662Z,3.57
2022-09-15T17:40:36.289Z,1.73
2022-09-15T17:43:03.952Z,1.37
2022-09-15T17:45:33.144Z,0.87
2022-09-15T17:48:00.240Z,5.50
2022-09-15T17:50:28.898Z,1.33
2022-09-15T17:52:57.417Z,2.70
2022-09-15T17:55:28.627Z,2.50
2022-09-15T17:57:56.785Z,2.20
2022-09-15T18:00:25.134Z,1.33
2022-09-15T18:02:54.170Z,13.80
2022-09-15T18:05:24.349Z,4.03
2022-09-15T18:07:51.634Z,6.90
2022-09-15T18:10:20.540Z,4.07
2022-09-15T18:12:49.244Z,3.20
2022-09-15T18:15:20.517Z,4.00
2022-09-15T18:17:48.037Z,3.40
2022-09-15T18:20:17.289Z,8.63
2022-09-15T18:22:44.601Z,3.57
2022-09-15T18:25:17.231Z,3.40
2022-09-15T18:27:46.489Z,4.90
2022-09-15T18:30:13.910Z,4.73
2022-09-15T18:32:40.966Z,4.70
2022-09-15T18:35:08.583Z,4.10
2022-09-15T18:37:36.252Z,3.03
2022-09-15T18:40:04.939Z,3.67
2022-09-15T18:42:32.163Z,6.83
2022-09-15T18:45:00.529Z,2.83
2022-09-15T18:47:27.630Z,1.63
2022-09-15T18:49:54.554Z,2.57
2022-09-15T18:52:21.407Z,1.30
2022-09-15T18:54:48.363Z,1.20
2022-09-15T18:57:15.247Z,3.00
2022-09-15T18:59:42.037Z,2.97
2022-09-15T19:02:10.884Z,2.70
2022-09-15T19:04:40.639Z,4.17
2022-09-15T19:07:08.398Z,4.80
2022-09-15T19:09:35.504Z,2.63
2022-09-15T19:12:03.459Z,1.43
2022-09-15T19:14:31.050Z,1.50
2022-09-15T19:16:58.619Z,8.97
2022-09-15T19:19:27.157Z,5.63
2022-09-15T19:21:54.118Z,4.50
2022-09-15T19:24:21.003Z,3.10
2022-09-15T19:26:47.970Z,3.47
2022-09-15T19:29:14.871Z,4.67
2022-09-15T19:31:42.243Z,3.07
2022-09-15T19:34:09.912Z,3.13
2022-09-15T19:36:38.320Z,2.47
2022-09-15T19:39:05.087Z,8.00
2022-09-15T19:41:32.486Z,3.43
2022-09-15T19:44:01.804Z,4.13
2022-09-15T19:46:28.845Z,3.93
2022-09-15T19:48:55.798Z,2.00
2022-09-15T19:51:23.174Z,4.23
2022-09-15T19:53:54.598Z,1.90
2022-09-15T19:56:23.004Z,3.73
2022-09-15T19:58:49.943Z,2.67
2022-09-15T20:01:16.885Z,2.07
2022-09-15T20:03:43.927Z,1.93
2022-09-15T20:06:10.860Z,2.17
2022-09-15T20:08:38.078Z,3.40
2022-09-15T20:11:08.187Z,1.50
2022-09-15T20:13:35.527Z,5.23
2022-09-15T20:16:03.787Z,2.00
2022-09-15T20:18:30.976Z,1.80
2022-09-15T20:20:58.029Z,1.43
2022-09-15T20:23:27.223Z,3.70
2022-09-15T20:25:58.318Z,2.43
2022-09-15T20:28:27.716Z,3.40
2022-09-15T20:31:02.423Z,5.30
2022-09-15T20:33:29.606Z,3.73
2022-09-15T20:36:01.682Z,1.03
2022-09-15T20:38:28.456Z,0.97
2022-09-15T20:40:55.920Z,4.43
2022-09-15T20:43:23.178Z,1.40
2022-09-15T20:45:58.604Z,1.73
2022-09-15T20:48:25.982Z,3.57
2022-09-15T20:51:00.239Z,1.63
2022-09-15T20:53:27.100Z,2.17
2022-09-15T20:55:53.981Z,2.30
2022-09-15T20:58:20.882Z,1.90
2022-09-15T21:00:47.878Z,2.40
2022-09-15T21:03:16.246Z,2.63
2022-09-15T21:05:43.633Z,1.30
2022-09-15T21:08:10.499Z,2.67
2022-09-15T21:10:37.857Z,1.17
2022-09-15T21:13:04.930Z,1.30
2022-09-15T21:15:32.138Z,2.93
2022-09-15T21:17:59.020Z,1.13
2022-09-15T21:20:27.333Z,1.63
2022-09-15T21:22:54.455Z,0.70
2022-09-15T21:25:21.419Z,1.50
2022-09-15T21:27:48.295Z,3.13
2022-09-15T21:30:15.261Z,1.37
2022-09-15T21:32:42.142Z,1.90
2022-09-15T21:35:09.130Z,1.10
2022-09-15T21:37:37.515Z,0.60
2022-09-15T21:40:05.012Z,1.80
2022-09-15T21:42:32.158Z,1.90
2022-09-15T21:44:59.022Z,1.30
2022-09-15T21:47:25.841Z,5.30
2022-09-15T21:49:52.708Z,1.37
2022-09-15T21:52:19.548Z,0.97
2022-09-15T21:54:47.824Z,2.20
2022-09-15T21:57:14.715Z,2.97
2022-09-15T21:59:41.616Z,1.77
2022-09-15T22:02:08.526Z,1.07
2022-09-15T22:04:35.434Z,2.97
2022-09-15T22:07:02.327Z,1.00
2022-09-15T22:09:29.253Z,1.00
2022-09-15T22:11:57.682Z,3.40
2022-09-15T22:14:24.423Z,3.03
2022-09-15T22:16:51.302Z,3.60
2022-09-15T22:19:18.305Z,2.20
2022-09-15T22:21:45.157Z,2.13
2022-09-15T22:24:13.638Z,1.27
2022-09-15T22:26:41.867Z,1.90
2022-09-15T22:29:10.277Z,6.13
2022-09-15T22:31:37.871Z,1.17
2022-09-15T22:34:04.752Z,6.47
2022-09-15T22:36:31.979Z,4.53
2022-09-15T22:38:59.852Z,1.10
2022-09-15T22:41:26.658Z,2.17
2022-09-15T22:43:53.588Z,4.77
2022-09-15T22:46:21.776Z,4.47
2022-09-15T22:48:48.726Z,3.77
2022-09-15T22:51:15.724Z,2.50
2022-09-15T22:53:42.934Z,1.23
2022-09-15T22:56:12.442Z,1.83
2022-09-15T22:58:42.059Z,2.80
2022-09-15T23:01:11.610Z,2.67
2022-09-15T23:03:40.595Z,2.37
2022-09-15T23:06:08.077Z,3.90
2022-09-15T23:08:35.702Z,3.90
2022-09-15T23:11:05.299Z,2.40
2022-09-15T23:13:32.176Z,3.97
2022-09-15T23:15:59.346Z,1.20
2022-09-15T23:18:26.647Z,4.33
2022-09-15T23:20:58.984Z,3.50
2022-09-15T23:23:26.885Z,2.63
2022-09-15T23:25:54.096Z,0.90
2022-09-15T23:28:21.032Z,2.33
2022-09-15T23:30:51.719Z,1.90
2022-09-15T23:33:18.816Z,2.40
2022-09-15T23:35:46.114Z,3.43
2022-09-15T23:38:14.998Z,1.90
2022-09-15T23:40:42.215Z,4.30
2022-09-15T23:43:09.248Z,6.20
2022-09-15T23:45:37.040Z,5.53
2022-09-15T23:48:04.108Z,3.70
2022-09-15T23:50:31.149Z,3.37
2022-09-15T23:52:58.342Z,5.53
2022-09-15T23:55:26.920Z,2.10
2022-09-15T23:57:53.994Z,2.00
